sensor_id;sensor_type;location;lat;lon;timestamp;temperature;humidity
21191;DHT22;10753;52.304;20.990;2022-07-29T00:01:42;14.70;1.00
21191;DHT22;10753;52.304;20.990;2022-07-29T00:04:07;14.80;20.80
21191;DHT22;10753;52.304;20.990;2022-07-29T00:06:33;14.70;1.00
21191;DHT22;10753;52.304;20.990;2022-07-29T00:08:59;14.70;1.00
21191;DHT22;10753;52.304;20.990;2022-07-29T00:11:24;14.60;1.00
21191;DHT22;10753;52.304;20.990;2022-07-29T00:13:50;14.60;99.90
21191;DHT22;10753;52.304;20.990;2022-07-29T00:16:15;14.50;99.90
21191;DHT22;10753;52.304;20.990;2022-07-29T00:18:41;14.50;99.90
21191;DHT22;10753;52.304;20.990;2022-07-29T00:21:06;14.40;1.00
21191;DHT22;10753;52.304;20.990;2022-07-29T00:23:32;14.60;1.00
21191;DHT22;10753;52.304;20.990;2022-07-29T00:25:57;14.60;1.00
21191;DHT22;10753;52.304;20.990;2022-07-29T00:28:23;14.70;1.00
21191;DHT22;10753;52.304;20.990;2022-07-29T00:30:48;14.70;21.00
21191;DHT22;10753;52.304;20.990;2022-07-29T00:33:14;14.80;99.90
21191;DHT22;10753;52.304;20.990;2022-07-29T00:35:40;14.90;1.00
21191;DHT22;10753;52.304;20.990;2022-07-29T00:38:16;14.80;1.00
21191;DHT22;10753;52.304;20.990;2022-07-29T00:40:42;14.80;99.90
21191;DHT22;10753;52.304;20.990;2022-07-29T00:43:08;14.70;1.00
21191;DHT22;10753;52.304;20.990;2022-07-29T00:45:34;14.70;1.00
21191;DHT22;10753;52.304;20.990;2022-07-29T00:47:59;14.50;1.00
21191;DHT22;10753;52.304;20.990;2022-07-29T00:50:26;14.50;1.00
21191;DHT22;10753;52.304;20.990;2022-07-29T00:52:52;14.40;1.00
21191;DHT22;10753;52.304;20.990;2022-07-29T00:55:18;14.30;1.00
21191;DHT22;10753;52.304;20.990;2022-07-29T00:57:44;14.20;99.90
21191;DHT22;10753;52.304;20.990;2022-07-29T01:00:13;14.30;1.00
21191;DHT22;10753;52.304;20.990;2022-07-29T01:02:39;14.30;1.00
21191;DHT22;10753;52.304;20.990;2022-07-29T01:05:05;14.30;1.00
21191;DHT22;10753;52.304;20.990;2022-07-29T01:07:36;14.30;99.90
21191;DHT22;10753;52.304;20.990;2022-07-29T01:10:06;14.20;99.90
21191;DHT22;10753;52.304;20.990;2022-07-29T01:12:34;14.20;1.00
21191;DHT22;10753;52.304;20.990;2022-07-29T01:15:02;14.20;1.00
21191;DHT22;10753;52.304;20.990;2022-07-29T01:20:18;14.20;1.00
21191;DHT22;10753;52.304;20.990;2022-07-29T01:23:03;14.10;1.00
21191;DHT22;10753;52.304;20.990;2022-07-29T01:26:03;14.20;1.00
21191;DHT22;10753;52.304;20.990;2022-07-29T01:31:07;14.10;67.40
21191;DHT22;10753;52.304;20.990;2022-07-29T01:33:38;14.10;1.00
21191;DHT22;10753;52.304;20.990;2022-07-29T01:36:27;14.10;6.70
21191;DHT22;10753;52.304;20.990;2022-07-29T01:39:08;14.10;1.00
21191;DHT22;10753;52.304;20.990;2022-07-29T01:41:40;14.00;99.90
21191;DHT22;10753;52.304;20.990;2022-07-29T01:44:15;13.90;99.90
21191;DHT22;10753;52.304;20.990;2022-07-29T01:46:49;13.90;99.90
21191;DHT22;10753;52.304;20.990;2022-07-29T01:49:21;13.90;99.90
21191;DHT22;10753;52.304;20.990;2022-07-29T01:51:53;13.80;99.90
21191;DHT22;10753;52.304;20.990;2022-07-29T01:56:49;13.70;1.00
21191;DHT22;10753;52.304;20.990;2022-07-29T01:59:17;13.60;1.00
21191;DHT22;10753;52.304;20.990;2022-07-29T02:01:45;13.60;99.90
21191;DHT22;10753;52.304;20.990;2022-07-29T02:04:12;13.60;1.00
21191;DHT22;10753;52.304;20.990;2022-07-29T02:06:42;13.70;1.00
21191;DHT22;10753;52.304;20.990;2022-07-29T02:09:10;13.60;1.00
21191;DHT22;10753;52.304;20.990;2022-07-29T02:11:38;13.70;1.00
21191;DHT22;10753;52.304;20.990;2022-07-29T02:14:05;13.60;1.00
21191;DHT22;10753;52.304;20.990;2022-07-29T02:16:33;13.60;1.00
21191;DHT22;10753;52.304;20.990;2022-07-29T02:19:02;13.60;1.00
21191;DHT22;10753;52.304;20.990;2022-07-29T02:21:29;13.60;1.00
21191;DHT22;10753;52.304;20.990;2022-07-29T02:23:58;13.60;1.00
21191;DHT22;10753;52.304;20.990;2022-07-29T02:26:25;13.60;1.00
21191;DHT22;10753;52.304;20.990;2022-07-29T02:28:55;13.50;1.00
21191;DHT22;10753;52.304;20.990;2022-07-29T02:31:25;13.50;1.00
21191;DHT22;10753;52.304;20.990;2022-07-29T02:33:52;13.40;13.90
21191;DHT22;10753;52.304;20.990;2022-07-29T02:36:21;13.50;99.90
21191;DHT22;10753;52.304;20.990;2022-07-29T02:38:48;13.40;99.90
21191;DHT22;10753;52.304;20.990;2022-07-29T02:41:24;13.40;99.90
21191;DHT22;10753;52.304;20.990;2022-07-29T02:43:55;13.40;99.90
21191;DHT22;10753;52.304;20.990;2022-07-29T02:46:26;13.40;99.90
21191;DHT22;10753;52.304;20.990;2022-07-29T02:49:02;13.30;1.00
21191;DHT22;10753;52.304;20.990;2022-07-29T02:51:37;13.40;1.00
21191;DHT22;10753;52.304;20.990;2022-07-29T02:54:07;13.40;99.90
21191;DHT22;10753;52.304;20.990;2022-07-29T02:56:33;13.30;99.90
21191;DHT22;10753;52.304;20.990;2022-07-29T02:59:06;13.40;1.00
21191;DHT22;10753;52.304;20.990;2022-07-29T03:01:34;13.40;1.00
21191;DHT22;10753;52.304;20.990;2022-07-29T03:04:03;13.40;1.00
21191;DHT22;10753;52.304;20.990;2022-07-29T03:06:30;13.40;1.00
21191;DHT22;10753;52.304;20.990;2022-07-29T03:08:57;13.40;1.00
21191;DHT22;10753;52.304;20.990;2022-07-29T03:11:24;13.40;1.00
21191;DHT22;10753;52.304;20.990;2022-07-29T03:13:51;13.40;1.00
21191;DHT22;10753;52.304;20.990;2022-07-29T03:16:18;13.40;1.00
21191;DHT22;10753;52.304;20.990;2022-07-29T03:18:44;13.40;1.00
21191;DHT22;10753;52.304;20.990;2022-07-29T03:21:10;13.40;1.00
21191;DHT22;10753;52.304;20.990;2022-07-29T03:23:36;13.50;1.00
21191;DHT22;10753;52.304;20.990;2022-07-29T03:26:02;13.60;1.00
21191;DHT22;10753;52.304;20.990;2022-07-29T03:28:27;13.80;1.00
21191;DHT22;10753;52.304;20.990;2022-07-29T03:30:53;14.00;1.00
21191;DHT22;10753;52.304;20.990;2022-07-29T03:33:19;14.10;1.00
21191;DHT22;10753;52.304;20.990;2022-07-29T03:35:45;14.00;1.00
21191;DHT22;10753;52.304;20.990;2022-07-29T03:38:11;14.10;1.00
21191;DHT22;10753;52.304;20.990;2022-07-29T03:40:53;14.20;1.00
21191;DHT22;10753;52.304;20.990;2022-07-29T03:43:20;14.20;1.00
21191;DHT22;10753;52.304;20.990;2022-07-29T03:45:51;14.20;1.00
21191;DHT22;10753;52.304;20.990;2022-07-29T03:48:21;14.20;99.90
21191;DHT22;10753;52.304;20.990;2022-07-29T03:50:47;14.30;99.90
21191;DHT22;10753;52.304;20.990;2022-07-29T03:53:13;14.30;99.90
21191;DHT22;10753;52.304;20.990;2022-07-29T03:55:48;14.40;99.90
21191;DHT22;10753;52.304;20.990;2022-07-29T03:58:16;14.50;99.90
21191;DHT22;10753;52.304;20.990;2022-07-29T04:00:44;14.60;99.90
21191;DHT22;10753;52.304;20.990;2022-07-29T04:03:10;14.60;99.90
21191;DHT22;10753;52.304;20.990;2022-07-29T04:05:36;14.60;99.90
21191;DHT22;10753;52.304;20.990;2022-07-29T04:08:01;14.80;99.90
21191;DHT22;10753;52.304;20.990;2022-07-29T04:10:27;14.80;99.90
21191;DHT22;10753;52.304;20.990;2022-07-29T04:12:53;14.90;99.90
21191;DHT22;10753;52.304;20.990;2022-07-29T04:15:19;15.00;99.90
21191;DHT22;10753;52.304;20.990;2022-07-29T04:17:44;15.00;99.90
21191;DHT22;10753;52.304;20.990;2022-07-29T04:20:10;15.10;99.90
21191;DHT22;10753;52.304;20.990;2022-07-29T04:22:39;15.30;99.90
21191;DHT22;10753;52.304;20.990;2022-07-29T04:25:05;15.40;99.90
21191;DHT22;10753;52.304;20.990;2022-07-29T04:27:30;15.50;20.20
21191;DHT22;10753;52.304;20.990;2022-07-29T04:29:56;15.60;1.00
21191;DHT22;10753;52.304;20.990;2022-07-29T04:32:22;15.60;1.00
21191;DHT22;10753;52.304;20.990;2022-07-29T04:34:47;15.70;1.00
21191;DHT22;10753;52.304;20.990;2022-07-29T04:37:13;15.80;1.00
21191;DHT22;10753;52.304;20.990;2022-07-29T04:39:39;16.00;1.00
21191;DHT22;10753;52.304;20.990;2022-07-29T04:42:04;15.90;1.00
21191;DHT22;10753;52.304;20.990;2022-07-29T04:44:30;16.00;1.00
21191;DHT22;10753;52.304;20.990;2022-07-29T04:46:56;16.20;1.00
21191;DHT22;10753;52.304;20.990;2022-07-29T04:49:22;16.10;1.00
21191;DHT22;10753;52.304;20.990;2022-07-29T04:51:48;16.30;1.00
21191;DHT22;10753;52.304;20.990;2022-07-29T04:54:14;16.40;1.00
21191;DHT22;10753;52.304;20.990;2022-07-29T04:56:39;16.50;1.00
21191;DHT22;10753;52.304;20.990;2022-07-29T04:59:06;16.60;99.90
21191;DHT22;10753;52.304;20.990;2022-07-29T05:01:32;16.70;1.00
21191;DHT22;10753;52.304;20.990;2022-07-29T05:03:57;16.80;99.90
21191;DHT22;10753;52.304;20.990;2022-07-29T05:06:23;16.90;99.90
21191;DHT22;10753;52.304;20.990;2022-07-29T05:08:49;17.00;99.90
21191;DHT22;10753;52.304;20.990;2022-07-29T05:11:14;17.10;1.00
21191;DHT22;10753;52.304;20.990;2022-07-29T05:13:40;17.30;1.00
21191;DHT22;10753;52.304;20.990;2022-07-29T05:16:05;17.40;1.00
21191;DHT22;10753;52.304;20.990;2022-07-29T05:18:33;17.50;1.00
21191;DHT22;10753;52.304;20.990;2022-07-29T05:20:58;17.60;1.00
21191;DHT22;10753;52.304;20.990;2022-07-29T05:23:24;17.80;1.00
21191;DHT22;10753;52.304;20.990;2022-07-29T05:25:49;18.00;99.90
21191;DHT22;10753;52.304;20.990;2022-07-29T05:28:15;18.10;99.90
21191;DHT22;10753;52.304;20.990;2022-07-29T05:30:42;18.30;99.90
21191;DHT22;10753;52.304;20.990;2022-07-29T05:33:09;18.40;17.20
21191;DHT22;10753;52.304;20.990;2022-07-29T05:35:35;18.60;1.00
21191;DHT22;10753;52.304;20.990;2022-07-29T05:38:03;18.70;1.00
21191;DHT22;10753;52.304;20.990;2022-07-29T05:40:28;18.70;99.90
21191;DHT22;10753;52.304;20.990;2022-07-29T05:42:54;18.70;99.90
21191;DHT22;10753;52.304;20.990;2022-07-29T05:45:20;18.80;99.90
21191;DHT22;10753;52.304;20.990;2022-07-29T05:47:45;18.90;2.50
21191;DHT22;10753;52.304;20.990;2022-07-29T05:50:12;19.00;1.00
21191;DHT22;10753;52.304;20.990;2022-07-29T05:52:37;19.00;1.00
21191;DHT22;10753;52.304;20.990;2022-07-29T05:55:03;19.00;1.00
21191;DHT22;10753;52.304;20.990;2022-07-29T05:57:31;19.00;51.30
21191;DHT22;10753;52.304;20.990;2022-07-29T05:59:56;19.10;1.00
21191;DHT22;10753;52.304;20.990;2022-07-29T06:02:22;19.30;1.00
21191;DHT22;10753;52.304;20.990;2022-07-29T06:04:47;19.40;1.00
21191;DHT22;10753;52.304;20.990;2022-07-29T06:07:14;19.70;99.90
21191;DHT22;10753;52.304;20.990;2022-07-29T06:09:40;19.90;1.00
21191;DHT22;10753;52.304;20.990;2022-07-29T06:12:06;19.90;1.00
21191;DHT22;10753;52.304;20.990;2022-07-29T06:14:31;20.10;1.00
21191;DHT22;10753;52.304;20.990;2022-07-29T06:16:58;20.30;1.00
21191;DHT22;10753;52.304;20.990;2022-07-29T06:19:23;20.60;1.00
21191;DHT22;10753;52.304;20.990;2022-07-29T06:21:49;20.80;99.90
21191;DHT22;10753;52.304;20.990;2022-07-29T06:24:15;20.90;99.90
21191;DHT22;10753;52.304;20.990;2022-07-29T06:26:41;21.20;99.90
21191;DHT22;10753;52.304;20.990;2022-07-29T06:29:08;21.40;99.90
21191;DHT22;10753;52.304;20.990;2022-07-29T06:31:36;21.70;99.90
21191;DHT22;10753;52.304;20.990;2022-07-29T06:34:02;21.90;44.90
21191;DHT22;10753;52.304;20.990;2022-07-29T06:36:27;22.10;1.00
21191;DHT22;10753;52.304;20.990;2022-07-29T06:38:53;22.50;1.00
21191;DHT22;10753;52.304;20.990;2022-07-29T06:41:18;23.20;1.00
21191;DHT22;10753;52.304;20.990;2022-07-29T06:43:45;25.00;99.90
21191;DHT22;10753;52.304;20.990;2022-07-29T06:46:13;27.40;1.00
21191;DHT22;10753;52.304;20.990;2022-07-29T06:48:39;29.50;1.00
21191;DHT22;10753;52.304;20.990;2022-07-29T06:51:07;31.30;99.90
21191;DHT22;10753;52.304;20.990;2022-07-29T06:53:33;32.80;99.90
21191;DHT22;10753;52.304;20.990;2022-07-29T06:56:00;33.80;99.90
21191;DHT22;10753;52.304;20.990;2022-07-29T06:58:26;34.60;99.90
21191;DHT22;10753;52.304;20.990;2022-07-29T07:00:52;34.30;99.90
21191;DHT22;10753;52.304;20.990;2022-07-29T07:03:18;34.40;99.90
21191;DHT22;10753;52.304;20.990;2022-07-29T07:05:45;35.20;99.90
21191;DHT22;10753;52.304;20.990;2022-07-29T07:08:11;36.30;99.90
21191;DHT22;10753;52.304;20.990;2022-07-29T07:10:38;37.10;99.90
21191;DHT22;10753;52.304;20.990;2022-07-29T07:13:04;37.60;99.90
21191;DHT22;10753;52.304;20.990;2022-07-29T07:15:30;38.20;99.90
21191;DHT22;10753;52.304;20.990;2022-07-29T07:17:56;38.80;99.90
21191;DHT22;10753;52.304;20.990;2022-07-29T07:20:23;39.30;99.90
21191;DHT22;10753;52.304;20.990;2022-07-29T07:22:48;39.90;99.90
21191;DHT22;10753;52.304;20.990;2022-07-29T07:25:14;40.30;99.90
21191;DHT22;10753;52.304;20.990;2022-07-29T07:27:39;40.90;99.90
21191;DHT22;10753;52.304;20.990;2022-07-29T07:30:06;41.30;99.90
21191;DHT22;10753;52.304;20.990;2022-07-29T07:32:35;41.60;99.90
21191;DHT22;10753;52.304;20.990;2022-07-29T07:35:00;42.30;99.90
21191;DHT22;10753;52.304;20.990;2022-07-29T07:37:26;42.90;99.90
21191;DHT22;10753;52.304;20.990;2022-07-29T07:39:52;42.80;99.90
21191;DHT22;10753;52.304;20.990;2022-07-29T07:42:19;43.40;99.90
21191;DHT22;10753;52.304;20.990;2022-07-29T07:44:45;44.00;99.90
21191;DHT22;10753;52.304;20.990;2022-07-29T07:47:11;44.50;99.90
21191;DHT22;10753;52.304;20.990;2022-07-29T07:49:37;44.40;99.90
21191;DHT22;10753;52.304;20.990;2022-07-29T07:52:03;43.70;99.90
21191;DHT22;10753;52.304;20.990;2022-07-29T07:54:29;43.00;99.90
21191;DHT22;10753;52.304;20.990;2022-07-29T07:56:55;43.90;99.90
21191;DHT22;10753;52.304;20.990;2022-07-29T07:59:21;45.30;99.90
21191;DHT22;10753;52.304;20.990;2022-07-29T08:01:46;45.90;99.90
21191;DHT22;10753;52.304;20.990;2022-07-29T08:04:12;47.00;99.90
21191;DHT22;10753;52.304;20.990;2022-07-29T08:06:38;47.90;99.90
21191;DHT22;10753;52.304;20.990;2022-07-29T08:09:04;48.50;99.90
21191;DHT22;10753;52.304;20.990;2022-07-29T08:11:30;48.00;99.90
21191;DHT22;10753;52.304;20.990;2022-07-29T08:13:56;46.30;99.90
21191;DHT22;10753;52.304;20.990;2022-07-29T08:16:22;45.70;99.90
21191;DHT22;10753;52.304;20.990;2022-07-29T08:18:48;45.70;99.90
21191;DHT22;10753;52.304;20.990;2022-07-29T08:21:14;46.20;99.90
21191;DHT22;10753;52.304;20.990;2022-07-29T08:23:41;47.10;99.90
21191;DHT22;10753;52.304;20.990;2022-07-29T08:26:19;47.70;99.90
21191;DHT22;10753;52.304;20.990;2022-07-29T08:28:45;48.20;99.90
21191;DHT22;10753;52.304;20.990;2022-07-29T08:31:14;49.20;99.90
21191;DHT22;10753;52.304;20.990;2022-07-29T08:33:40;49.00;99.90
21191;DHT22;10753;52.304;20.990;2022-07-29T08:36:06;49.90;99.90
21191;DHT22;10753;52.304;20.990;2022-07-29T08:38:32;51.10;1.00
21191;DHT22;10753;52.304;20.990;2022-07-29T08:40:59;51.60;99.90
21191;DHT22;10753;52.304;20.990;2022-07-29T08:43:25;52.50;99.90
21191;DHT22;10753;52.304;20.990;2022-07-29T08:45:51;52.60;99.90
21191;DHT22;10753;52.304;20.990;2022-07-29T08:48:21;52.90;99.90
21191;DHT22;10753;52.304;20.990;2022-07-29T08:50:51;53.00;1.00
21191;DHT22;10753;52.304;20.990;2022-07-29T08:53:18;52.90;1.00
21191;DHT22;10753;52.304;20.990;2022-07-29T08:55:46;52.30;5.80
21191;DHT22;10753;52.304;20.990;2022-07-29T08:58:13;52.70;1.00
21191;DHT22;10753;52.304;20.990;2022-07-29T09:00:42;53.50;1.00
21191;DHT22;10753;52.304;20.990;2022-07-29T09:03:09;54.50;99.90
21191;DHT22;10753;52.304;20.990;2022-07-29T09:05:41;55.40;99.90
21191;DHT22;10753;52.304;20.990;2022-07-29T09:08:08;56.10;1.00
21191;DHT22;10753;52.304;20.990;2022-07-29T09:10:35;57.10;99.90
21191;DHT22;10753;52.304;20.990;2022-07-29T09:13:01;54.70;99.90
21191;DHT22;10753;52.304;20.990;2022-07-29T09:15:26;49.00;99.90
21191;DHT22;10753;52.304;20.990;2022-07-29T09:17:52;46.90;99.90
21191;DHT22;10753;52.304;20.990;2022-07-29T09:20:21;47.70;99.90
21191;DHT22;10753;52.304;20.990;2022-07-29T09:22:48;49.80;99.90
21191;DHT22;10753;52.304;20.990;2022-07-29T09:28:26;52.20;99.90
21191;DHT22;10753;52.304;20.990;2022-07-29T09:30:55;51.00;99.90
21191;DHT22;10753;52.304;20.990;2022-07-29T09:33:22;49.60;99.90
21191;DHT22;10753;52.304;20.990;2022-07-29T09:36:05;48.00;99.90
21191;DHT22;10753;52.304;20.990;2022-07-29T09:38:32;45.90;98.20
21191;DHT22;10753;52.304;20.990;2022-07-29T09:41:01;46.10;99.90
21191;DHT22;10753;52.304;20.990;2022-07-29T09:43:27;48.00;99.90
21191;DHT22;10753;52.304;20.990;2022-07-29T09:45:53;50.40;99.90
21191;DHT22;10753;52.304;20.990;2022-07-29T09:48:21;52.50;99.90
21191;DHT22;10753;52.304;20.990;2022-07-29T09:50:47;53.30;99.90
21191;DHT22;10753;52.304;20.990;2022-07-29T09:53:37;52.00;99.90
21191;DHT22;10753;52.304;20.990;2022-07-29T09:56:04;51.70;98.40
21191;DHT22;10753;52.304;20.990;2022-07-29T09:58:30;51.50;99.90
21191;DHT22;10753;52.304;20.990;2022-07-29T10:00:56;50.70;99.90
21191;DHT22;10753;52.304;20.990;2022-07-29T10:03:22;50.40;99.90
21191;DHT22;10753;52.304;20.990;2022-07-29T10:06:10;50.70;99.90
21191;DHT22;10753;52.304;20.990;2022-07-29T10:08:37;50.40;90.10
21191;DHT22;10753;52.304;20.990;2022-07-29T10:11:11;49.40;76.40
21191;DHT22;10753;52.304;20.990;2022-07-29T10:13:38;47.80;48.90
21191;DHT22;10753;52.304;20.990;2022-07-29T10:16:04;46.00;51.60
21191;DHT22;10753;52.304;20.990;2022-07-29T10:18:32;42.90;41.30
21191;DHT22;10753;52.304;20.990;2022-07-29T10:20:58;41.60;75.10
21191;DHT22;10753;52.304;20.990;2022-07-29T10:23:27;41.00;99.90
21191;DHT22;10753;52.304;20.990;2022-07-29T10:25:53;40.30;99.90
21191;DHT22;10753;52.304;20.990;2022-07-29T10:28:19;39.90;13.50
21191;DHT22;10753;52.304;20.990;2022-07-29T10:30:45;39.40;90.60
21191;DHT22;10753;52.304;20.990;2022-07-29T10:33:30;39.20;99.90
21191;DHT22;10753;52.304;20.990;2022-07-29T10:39:16;39.50;99.90
21191;DHT22;10753;52.304;20.990;2022-07-29T10:41:57;40.70;77.30
21191;DHT22;10753;52.304;20.990;2022-07-29T10:44:25;41.90;99.90
21191;DHT22;10753;52.304;20.990;2022-07-29T10:46:52;41.40;99.90
21191;DHT22;10753;52.304;20.990;2022-07-29T10:49:25;41.00;99.90
21191;DHT22;10753;52.304;20.990;2022-07-29T10:57:22;44.30;99.90
21191;DHT22;10753;52.304;20.990;2022-07-29T11:00:26;45.30;99.90
21191;DHT22;10753;52.304;20.990;2022-07-29T11:02:51;46.40;99.90
21191;DHT22;10753;52.304;20.990;2022-07-29T11:05:20;45.70;99.90
21191;DHT22;10753;52.304;20.990;2022-07-29T11:10:43;45.30;99.90
21191;DHT22;10753;52.304;20.990;2022-07-29T11:13:08;43.60;99.90
21191;DHT22;10753;52.304;20.990;2022-07-29T11:15:54;42.50;99.90
21191;DHT22;10753;52.304;20.990;2022-07-29T11:18:20;40.80;99.90
21191;DHT22;10753;52.304;20.990;2022-07-29T11:20:50;40.40;99.90
21191;DHT22;10753;52.304;20.990;2022-07-29T11:31:41;37.30;99.90
21191;DHT22;10753;52.304;20.990;2022-07-29T11:34:30;37.40;99.90
21191;DHT22;10753;52.304;20.990;2022-07-29T11:39:33;39.40;99.90
21191;DHT22;10753;52.304;20.990;2022-07-29T11:45:05;39.70;99.90
21191;DHT22;10753;52.304;20.990;2022-07-29T11:50:35;38.80;99.90
21191;DHT22;10753;52.304;20.990;2022-07-29T11:53:10;39.00;99.90
21191;DHT22;10753;52.304;20.990;2022-07-29T11:55:38;41.20;99.90
21191;DHT22;10753;52.304;20.990;2022-07-29T11:58:04;44.10;99.90
21191;DHT22;10753;52.304;20.990;2022-07-29T12:00:33;45.50;99.90
21191;DHT22;10753;52.304;20.990;2022-07-29T12:03:02;46.00;99.90
21191;DHT22;10753;52.304;20.990;2022-07-29T12:05:42;47.00;52.10
21191;DHT22;10753;52.304;20.990;2022-07-29T12:08:21;47.90;99.90
21191;DHT22;10753;52.304;20.990;2022-07-29T12:10:49;48.60;99.90
21191;DHT22;10753;52.304;20.990;2022-07-29T12:13:17;47.90;99.90
21191;DHT22;10753;52.304;20.990;2022-07-29T12:15:55;43.90;99.90
21191;DHT22;10753;52.304;20.990;2022-07-29T12:18:26;39.80;99.90
21191;DHT22;10753;52.304;20.990;2022-07-29T12:20:59;37.50;99.90
21191;DHT22;10753;52.304;20.990;2022-07-29T12:23:25;36.20;99.90
21191;DHT22;10753;52.304;20.990;2022-07-29T12:25:51;35.30;99.90
21191;DHT22;10753;52.304;20.990;2022-07-29T12:28:17;34.80;99.90
21191;DHT22;10753;52.304;20.990;2022-07-29T12:30:48;34.90;99.90
21191;DHT22;10753;52.304;20.990;2022-07-29T12:35:47;34.20;99.90
21191;DHT22;10753;52.304;20.990;2022-07-29T12:38:14;35.00;99.90
21191;DHT22;10753;52.304;20.990;2022-07-29T12:40:41;35.60;99.90
21191;DHT22;10753;52.304;20.990;2022-07-29T12:45:35;33.50;99.90
21191;DHT22;10753;52.304;20.990;2022-07-29T12:48:01;32.20;99.90
21191;DHT22;10753;52.304;20.990;2022-07-29T12:50:27;31.20;99.90
21191;DHT22;10753;52.304;20.990;2022-07-29T12:52:52;30.70;99.90
21191;DHT22;10753;52.304;20.990;2022-07-29T12:55:37;30.60;99.90
21191;DHT22;10753;52.304;20.990;2022-07-29T12:58:03;30.30;99.90
21191;DHT22;10753;52.304;20.990;2022-07-29T13:00:29;30.50;99.90
21191;DHT22;10753;52.304;20.990;2022-07-29T13:02:59;30.90;99.90
21191;DHT22;10753;52.304;20.990;2022-07-29T13:05:43;31.00;99.90
21191;DHT22;10753;52.304;20.990;2022-07-29T13:08:18;30.60;99.90
21191;DHT22;10753;52.304;20.990;2022-07-29T13:10:45;30.60;99.90
21191;DHT22;10753;52.304;20.990;2022-07-29T13:13:13;30.60;99.90
21191;DHT22;10753;52.304;20.990;2022-07-29T13:15:44;30.50;99.90
21191;DHT22;10753;52.304;20.990;2022-07-29T13:18:29;30.30;99.90
21191;DHT22;10753;52.304;20.990;2022-07-29T13:20:55;30.10;99.90
21191;DHT22;10753;52.304;20.990;2022-07-29T13:23:21;30.30;99.90
21191;DHT22;10753;52.304;20.990;2022-07-29T13:25:46;30.80;99.90
21191;DHT22;10753;52.304;20.990;2022-07-29T13:28:12;32.40;99.90
21191;DHT22;10753;52.304;20.990;2022-07-29T13:30:39;33.70;99.90
21191;DHT22;10753;52.304;20.990;2022-07-29T13:33:05;34.40;99.90
21191;DHT22;10753;52.304;20.990;2022-07-29T13:35:30;35.30;99.90
21191;DHT22;10753;52.304;20.990;2022-07-29T13:37:56;36.20;99.90
21191;DHT22;10753;52.304;20.990;2022-07-29T13:40:22;36.60;99.90
21191;DHT22;10753;52.304;20.990;2022-07-29T13:42:47;37.70;99.90
21191;DHT22;10753;52.304;20.990;2022-07-29T13:45:13;39.70;99.90
21191;DHT22;10753;52.304;20.990;2022-07-29T13:47:39;40.70;99.90
21191;DHT22;10753;52.304;20.990;2022-07-29T13:50:06;41.30;99.90
21191;DHT22;10753;52.304;20.990;2022-07-29T13:52:32;41.00;99.90
21191;DHT22;10753;52.304;20.990;2022-07-29T13:54:58;41.00;99.90
21191;DHT22;10753;52.304;20.990;2022-07-29T13:57:24;41.80;99.90
21191;DHT22;10753;52.304;20.990;2022-07-29T13:59:50;42.60;99.90
21191;DHT22;10753;52.304;20.990;2022-07-29T14:02:16;42.70;99.90
21191;DHT22;10753;52.304;20.990;2022-07-29T14:04:43;42.30;99.90
21191;DHT22;10753;52.304;20.990;2022-07-29T14:07:08;42.50;99.90
21191;DHT22;10753;52.304;20.990;2022-07-29T14:09:35;42.40;99.90
21191;DHT22;10753;52.304;20.990;2022-07-29T14:12:01;41.60;99.90
21191;DHT22;10753;52.304;20.990;2022-07-29T14:14:28;40.40;99.90
21191;DHT22;10753;52.304;20.990;2022-07-29T14:16:54;38.90;99.90
21191;DHT22;10753;52.304;20.990;2022-07-29T14:19:20;37.30;99.90
21191;DHT22;10753;52.304;20.990;2022-07-29T14:21:45;36.00;96.80
21191;DHT22;10753;52.304;20.990;2022-07-29T14:24:11;35.90;99.90
21191;DHT22;10753;52.304;20.990;2022-07-29T14:26:37;36.50;99.90
21191;DHT22;10753;52.304;20.990;2022-07-29T14:29:02;36.20;98.30
21191;DHT22;10753;52.304;20.990;2022-07-29T14:31:28;34.40;99.90
21191;DHT22;10753;52.304;20.990;2022-07-29T14:33:54;32.50;62.30
21191;DHT22;10753;52.304;20.990;2022-07-29T14:36:19;31.40;91.00
21191;DHT22;10753;52.304;20.990;2022-07-29T14:38:45;31.00;95.60
21191;DHT22;10753;52.304;20.990;2022-07-29T14:41:10;30.90;99.90
21191;DHT22;10753;52.304;20.990;2022-07-29T14:43:36;31.20;99.90
21191;DHT22;10753;52.304;20.990;2022-07-29T14:46:02;31.60;99.90
21191;DHT22;10753;52.304;20.990;2022-07-29T14:48:28;32.40;99.90
21191;DHT22;10753;52.304;20.990;2022-07-29T14:50:53;33.40;99.90
21191;DHT22;10753;52.304;20.990;2022-07-29T14:53:21;33.50;62.80
21191;DHT22;10753;52.304;20.990;2022-07-29T14:55:47;33.60;99.90
21191;DHT22;10753;52.304;20.990;2022-07-29T14:58:12;33.20;99.90
21191;DHT22;10753;52.304;20.990;2022-07-29T15:00:39;33.30;99.90
21191;DHT22;10753;52.304;20.990;2022-07-29T15:03:05;33.60;99.90
21191;DHT22;10753;52.304;20.990;2022-07-29T15:05:31;33.60;99.90
21191;DHT22;10753;52.304;20.990;2022-07-29T15:07:58;33.40;99.90
21191;DHT22;10753;52.304;20.990;2022-07-29T15:10:24;33.00;99.90
21191;DHT22;10753;52.304;20.990;2022-07-29T15:12:51;32.30;99.90
21191;DHT22;10753;52.304;20.990;2022-07-29T15:15:16;31.60;99.90
21191;DHT22;10753;52.304;20.990;2022-07-29T15:17:42;31.00;99.90
21191;DHT22;10753;52.304;20.990;2022-07-29T15:20:08;30.50;99.90
21191;DHT22;10753;52.304;20.990;2022-07-29T15:22:34;30.20;99.90
21191;DHT22;10753;52.304;20.990;2022-07-29T15:25:00;29.80;99.90
21191;DHT22;10753;52.304;20.990;2022-07-29T15:27:25;29.40;99.90
21191;DHT22;10753;52.304;20.990;2022-07-29T15:29:51;29.10;99.90
21191;DHT22;10753;52.304;20.990;2022-07-29T15:32:16;28.70;99.90
21191;DHT22;10753;52.304;20.990;2022-07-29T15:34:42;28.30;99.90
21191;DHT22;10753;52.304;20.990;2022-07-29T15:37:08;28.00;99.90
21191;DHT22;10753;52.304;20.990;2022-07-29T15:39:33;27.70;99.90
21191;DHT22;10753;52.304;20.990;2022-07-29T15:41:59;27.30;99.90
21191;DHT22;10753;52.304;20.990;2022-07-29T15:44:25;27.20;99.90
21191;DHT22;10753;52.304;20.990;2022-07-29T15:46:51;27.00;60.60
21191;DHT22;10753;52.304;20.990;2022-07-29T15:49:39;26.80;98.10
21191;DHT22;10753;52.304;20.990;2022-07-29T15:52:07;26.60;99.90
21191;DHT22;10753;52.304;20.990;2022-07-29T15:54:34;26.40;99.90
21191;DHT22;10753;52.304;20.990;2022-07-29T15:57:00;26.20;99.90
21191;DHT22;10753;52.304;20.990;2022-07-29T15:59:26;26.00;36.60
21191;DHT22;10753;52.304;20.990;2022-07-29T16:01:52;26.00;74.20
21191;DHT22;10753;52.304;20.990;2022-07-29T16:04:18;26.00;62.90
21191;DHT22;10753;52.304;20.990;2022-07-29T16:06:45;26.10;99.90
21191;DHT22;10753;52.304;20.990;2022-07-29T16:09:11;26.20;29.80